createdAt,value
2018-09-29T00:00:18.606Z,12.10
2018-09-29T00:02:46.386Z,11.97
2018-09-29T00:05:14.237Z,12.33
2018-09-29T00:07:42.092Z,12.53
2018-09-29T00:10:09.947Z,13.00
2018-09-29T00:12:37.934Z,11.70
2018-09-29T00:15:06.084Z,12.63
2018-09-29T00:17:33.885Z,13.00
2018-09-29T00:20:02.494Z,13.10
2018-09-29T00:22:30.300Z,12.93
2018-09-29T00:24:58.653Z,13.00
2018-09-29T00:27:26.402Z,12.73
2018-09-29T00:29:54.201Z,11.70
2018-09-29T00:32:22.529Z,12.57
2018-09-29T00:34:50.525Z,13.07
2018-09-29T00:37:18.286Z,13.40
2018-09-29T00:39:46.049Z,13.23
2018-09-29T00:42:13.989Z,12.47
2018-09-29T00:44:41.900Z,12.77
2018-09-29T00:47:09.677Z,12.70
2018-09-29T00:49:37.469Z,13.27
2018-09-29T00:52:05.285Z,12.90
2018-09-29T00:54:33.061Z,12.87
2018-09-29T00:57:01.486Z,13.17
2018-09-29T00:59:29.353Z,13.47
2018-09-29T01:01:57.183Z,13.00
2018-09-29T01:04:25.032Z,13.70
2018-09-29T01:06:52.981Z,13.27
2018-09-29T01:09:20.878Z,12.53
2018-09-29T01:11:48.624Z,13.83
2018-09-29T01:14:16.437Z,13.43
2018-09-29T01:16:44.257Z,14.37
2018-09-29T01:19:12.053Z,14.97
2018-09-29T01:21:39.850Z,15.20
2018-09-29T01:24:07.658Z,14.60
2018-09-29T01:26:35.433Z,14.63
2018-09-29T01:29:03.212Z,14.63
2018-09-29T01:31:30.993Z,14.67
2018-09-29T01:33:58.749Z,14.50
2018-09-29T01:36:26.554Z,14.43
2018-09-29T01:38:54.325Z,13.97
2018-09-29T01:41:22.252Z,13.63
2018-09-29T01:43:50.053Z,13.47
2018-09-29T01:46:17.833Z,14.60
2018-09-29T01:48:45.585Z,13.83
2018-09-29T01:51:13.349Z,14.00
2018-09-29T01:53:41.153Z,15.33
2018-09-29T01:56:08.980Z,14.10
2018-09-29T01:58:36.786Z,14.67
2018-09-29T02:01:04.573Z,14.67
2018-09-29T02:03:32.355Z,14.67
2018-09-29T02:06:00.101Z,13.93
2018-09-29T02:08:27.873Z,14.67
2018-09-29T02:10:55.752Z,14.30
2018-09-29T02:13:23.660Z,15.00
2018-09-29T02:15:51.470Z,14.50
2018-09-29T02:18:19.241Z,14.87
2018-09-29T02:20:47.017Z,14.27
2018-09-29T02:23:14.812Z,13.50
2018-09-29T02:25:42.685Z,13.60
2018-09-29T02:28:10.502Z,12.97
2018-09-29T02:30:38.250Z,12.97
2018-09-29T02:33:06.022Z,14.43
2018-09-29T02:35:33.777Z,12.47
2018-09-29T02:38:01.539Z,13.40
2018-09-29T02:40:29.356Z,12.97
2018-09-29T02:42:57.139Z,12.10
2018-09-29T02:45:24.918Z,13.03
2018-09-29T02:47:52.757Z,11.70
2018-09-29T02:50:20.559Z,12.30
2018-09-29T02:52:48.351Z,11.87
2018-09-29T02:55:16.134Z,11.33
2018-09-29T02:57:43.976Z,11.73
2018-09-29T03:00:11.745Z,11.13
2018-09-29T03:02:39.522Z,12.30
2018-09-29T03:05:07.552Z,12.63
2018-09-29T03:07:35.400Z,13.37
2018-09-29T03:10:03.253Z,13.93
2018-09-29T03:12:30.999Z,13.70
2018-09-29T03:14:58.809Z,13.40
2018-09-29T03:17:27.149Z,13.50
2018-09-29T03:19:54.962Z,14.13
2018-09-29T03:22:22.727Z,14.47
2018-09-29T03:24:50.873Z,14.30
2018-09-29T03:27:18.702Z,15.10
2018-09-29T03:29:46.446Z,14.10
2018-09-29T03:32:14.204Z,14.17
2018-09-29T03:34:42.088Z,13.37
2018-09-29T03:37:09.929Z,13.83
2018-09-29T03:39:37.942Z,13.67
2018-09-29T03:42:05.856Z,12.70
2018-09-29T03:44:33.648Z,13.40
2018-09-29T03:47:01.426Z,13.17
2018-09-29T03:49:29.225Z,13.33
2018-09-29T03:51:56.985Z,13.37
2018-09-29T03:54:24.795Z,13.77
2018-09-29T03:56:52.562Z,14.40
2018-09-29T03:59:20.316Z,14.73
2018-09-29T04:01:48.100Z,13.80
2018-09-29T04:04:15.869Z,14.83
2018-09-29T04:06:43.674Z,14.87
2018-09-29T04:09:11.436Z,13.60
2018-09-29T04:11:39.285Z,13.67
2018-09-29T04:14:07.511Z,12.87
2018-09-29T04:16:35.286Z,14.03
2018-09-29T04:19:03.101Z,14.50
2018-09-29T04:21:40.019Z,14.30
2018-09-29T04:24:08.109Z,14.57
2018-09-29T04:26:35.869Z,14.53
2018-09-29T04:29:03.921Z,14.20
2018-09-29T04:31:32.319Z,14.03
2018-09-29T04:34:00.684Z,14.63
2018-09-29T04:36:28.457Z,14.47
2018-09-29T04:38:56.425Z,15.00
2018-09-29T04:41:24.444Z,15.53
2018-09-29T04:43:52.569Z,15.40
2018-09-29T04:46:20.564Z,16.33
2018-09-29T04:48:48.717Z,15.10
2018-09-29T04:51:16.791Z,15.57
2018-09-29T04:53:44.772Z,14.83
2018-09-29T04:56:12.704Z,15.27
2018-09-29T04:58:40.709Z,16.00
2018-09-29T05:01:08.869Z,15.40
2018-09-29T05:03:36.750Z,14.93
2018-09-29T05:06:04.632Z,15.37
2018-09-29T05:08:32.582Z,14.83
2018-09-29T05:11:00.537Z,15.40
2018-09-29T05:13:28.505Z,14.20
2018-09-29T05:15:56.473Z,16.33
2018-09-29T05:18:24.392Z,15.70
2018-09-29T05:20:52.740Z,14.63
2018-09-29T05:23:20.630Z,15.07
2018-09-29T05:25:49.275Z,16.40
2018-09-29T05:28:17.299Z,15.63
2018-09-29T05:30:45.136Z,16.97
2018-09-29T05:33:13.094Z,16.33
2018-09-29T05:35:41.202Z,15.90
2018-09-29T05:38:09.186Z,15.90
2018-09-29T05:40:37.078Z,15.83
2018-09-29T05:43:05.160Z,15.43
2018-09-29T05:45:33.533Z,16.30
2018-09-29T05:48:01.493Z,15.93
2018-09-29T05:50:29.296Z,14.77
2018-09-29T05:52:57.129Z,15.77
2018-09-29T05:55:24.949Z,15.83
2018-09-29T05:57:52.736Z,16.37
2018-09-29T06:00:20.585Z,15.97
2018-09-29T06:02:48.316Z,15.30
2018-09-29T06:05:16.141Z,15.30
2018-09-29T06:07:43.972Z,14.67
2018-09-29T06:10:12.393Z,15.10
2018-09-29T06:12:40.836Z,15.00
2018-09-29T06:15:18.834Z,14.63
2018-09-29T06:17:46.685Z,13.70
2018-09-29T06:20:15.385Z,13.50
2018-09-29T06:22:48.736Z,12.97
2018-09-29T06:25:16.605Z,12.47
2018-09-29T06:27:44.525Z,12.83
2018-09-29T06:30:12.469Z,13.20
2018-09-29T06:32:40.408Z,13.20
2018-09-29T06:35:08.563Z,12.73
2018-09-29T06:37:36.345Z,13.53
2018-09-29T06:40:04.245Z,13.40
2018-09-29T06:42:32.913Z,12.63
2018-09-29T06:45:00.706Z,14.03
2018-09-29T06:47:28.629Z,13.17
2018-09-29T06:49:56.410Z,12.93
2018-09-29T06:52:24.344Z,12.43
2018-09-29T06:54:52.224Z,12.17
2018-09-29T06:57:20.097Z,12.17
2018-09-29T06:59:47.998Z,11.80
2018-09-29T07:02:15.896Z,11.90
2018-09-29T07:04:43.803Z,11.90
2018-09-29T07:07:11.624Z,12.40
2018-09-29T07:09:39.611Z,12.33
2018-09-29T07:12:07.427Z,12.47
2018-09-29T07:14:35.306Z,12.80
2018-09-29T07:17:04.793Z,12.10
2018-09-29T07:19:32.744Z,12.90
2018-09-29T07:22:00.533Z,12.13
2018-09-29T07:24:28.390Z,12.60
2018-09-29T07:26:56.153Z,12.13
2018-09-29T07:29:23.917Z,11.90
2018-09-29T07:31:54.005Z,12.20
2018-09-29T07:34:21.822Z,12.50
2018-09-29T07:36:49.650Z,13.33
2018-09-29T07:39:17.500Z,12.47
2018-09-29T07:41:45.406Z,12.37
2018-09-29T07:44:13.266Z,12.57
2018-09-29T07:46:41.083Z,12.20
2018-09-29T07:49:09.023Z,12.20
2018-09-29T07:51:36.789Z,11.87
2018-09-29T07:54:04.573Z,12.03
2018-09-29T07:56:32.456Z,11.43
2018-09-29T07:59:00.325Z,12.07
2018-09-29T08:01:28.450Z,11.73
2018-09-29T08:03:56.357Z,12.67
2018-09-29T08:06:24.466Z,12.13
2018-09-29T08:08:52.417Z,12.67
2018-09-29T08:11:20.280Z,12.23
2018-09-29T08:13:48.186Z,11.80
2018-09-29T08:16:16.053Z,11.60
2018-09-29T08:18:44.033Z,12.20
2018-09-29T08:21:11.884Z,11.63
2018-09-29T08:23:39.921Z,11.27
2018-09-29T08:26:07.779Z,12.10
2018-09-29T08:28:35.786Z,11.87
2018-09-29T08:31:03.913Z,11.67
2018-09-29T08:33:33.067Z,11.90
2018-09-29T08:36:01.226Z,12.43
2018-09-29T08:38:29.186Z,12.97
2018-09-29T08:40:56.973Z,12.67
2018-09-29T08:43:24.745Z,12.90
2018-09-29T08:45:53.369Z,12.50
2018-09-29T08:48:21.186Z,12.80
2018-09-29T08:50:49.045Z,12.93
2018-09-29T08:53:16.888Z,12.13
2018-09-29T08:55:44.589Z,12.77
2018-09-29T08:58:14.523Z,11.87
2018-09-29T09:00:42.585Z,12.50
2018-09-29T09:03:10.502Z,11.67
2018-09-29T09:05:38.525Z,12.23
2018-09-29T09:08:06.356Z,12.28
2018-09-29T09:10:34.181Z,11.48
2018-09-29T09:13:01.998Z,11.57
2018-09-29T09:15:29.785Z,12.30
2018-09-29T09:17:57.587Z,10.68
2018-09-29T09:20:25.372Z,11.30
2018-09-29T09:22:53.283Z,10.60
2018-09-29T09:25:21.152Z,11.45
2018-09-29T09:27:48.915Z,11.48
2018-09-29T09:30:16.746Z,11.28
2018-09-29T09:32:44.856Z,10.85
2018-09-29T09:35:12.770Z,10.85
2018-09-29T09:37:42.122Z,11.33
2018-09-29T09:40:09.955Z,11.55
2018-09-29T09:42:39.535Z,11.75
2018-09-29T09:45:07.605Z,10.72
2018-09-29T09:47:35.572Z,10.55
2018-09-29T09:50:03.530Z,10.82
2018-09-29T09:52:31.469Z,10.23
2018-09-29T09:54:59.299Z,10.88
2018-09-29T09:57:28.364Z,10.65
2018-09-29T09:59:56.317Z,11.75
2018-09-29T10:02:29.775Z,11.20
2018-09-29T10:04:57.576Z,11.60
2018-09-29T10:07:25.422Z,10.70
2018-09-29T10:09:53.265Z,11.03
2018-09-29T10:12:21.255Z,10.72
2018-09-29T10:14:49.032Z,11.08
2018-09-29T10:17:16.884Z,11.00
2018-09-29T10:19:44.816Z,10.70
2018-09-29T10:22:12.685Z,10.32
2018-09-29T10:24:40.537Z,10.93
2018-09-29T10:27:08.402Z,10.50
2018-09-29T10:29:36.269Z,10.40
2018-09-29T10:32:04.106Z,10.53
2018-09-29T10:34:31.977Z,10.43
2018-09-29T10:36:59.769Z,10.03
2018-09-29T10:39:27.592Z,10.50
2018-09-29T10:41:55.377Z,10.93
2018-09-29T10:44:23.261Z,11.45
2018-09-29T10:46:51.072Z,11.55
2018-09-29T10:49:18.925Z,10.53
2018-09-29T10:51:46.977Z,9.70
2018-09-29T10:54:14.969Z,9.70
2018-09-29T10:56:42.838Z,11.00
2018-09-29T10:59:10.810Z,10.15
2018-09-29T11:01:38.617Z,10.70
2018-09-29T11:04:06.452Z,10.63
2018-09-29T11:06:34.269Z,11.20
2018-09-29T11:09:03.023Z,12.15
2018-09-29T11:11:31.527Z,10.00
2018-09-29T11:13:59.495Z,10.98
2018-09-29T11:16:27.430Z,11.08
2018-09-29T11:18:55.353Z,10.28
2018-09-29T11:21:23.218Z,10.85
2018-09-29T11:23:51.038Z,11.15
2018-09-29T11:26:18.933Z,10.45
2018-09-29T11:28:46.849Z,10.78
2018-09-29T11:31:14.685Z,10.75
2018-09-29T11:33:42.685Z,10.32
2018-09-29T11:36:10.661Z,11.08
2018-09-29T11:38:38.597Z,9.95
2018-09-29T11:41:06.565Z,10.63
2018-09-29T11:43:34.507Z,9.93
2018-09-29T11:46:02.541Z,10.58
2018-09-29T11:48:30.557Z,10.15
2018-09-29T11:50:58.473Z,9.43
2018-09-29T11:53:26.342Z,10.13
2018-09-29T11:55:54.215Z,9.88
2018-09-29T11:58:22.054Z,10.25
2018-09-29T12:00:49.928Z,9.33
2018-09-29T12:03:17.741Z,10.32
2018-09-29T12:05:45.805Z,10.10
2018-09-29T12:08:13.722Z,9.85
2018-09-29T12:10:41.584Z,9.33
2018-09-29T12:13:09.409Z,9.88
2018-09-29T12:15:37.202Z,10.13
2018-09-29T12:18:05.034Z,9.88
2018-09-29T12:20:32.852Z,10.80
2018-09-29T12:23:00.709Z,9.80
2018-09-29T12:25:28.508Z,10.38
2018-09-29T12:27:56.314Z,9.70
2018-09-29T12:30:25.368Z,9.25
2018-09-29T12:32:53.133Z,9.25
2018-09-29T12:35:21.117Z,9.35
2018-09-29T12:37:49.145Z,9.10
2018-09-29T12:40:17.071Z,9.28
2018-09-29T12:42:44.966Z,9.18
2018-09-29T12:45:12.749Z,8.50
2018-09-29T12:47:41.276Z,8.53
2018-09-29T12:50:09.204Z,9.00
2018-09-29T12:52:37.336Z,9.25
2018-09-29T12:55:05.299Z,8.33
2018-09-29T12:57:33.122Z,8.10
2018-09-29T13:00:01.025Z,8.10
2018-09-29T13:02:28.998Z,7.92
2018-09-29T13:04:56.953Z,8.40
2018-09-29T13:07:26.112Z,7.90
2018-09-29T13:09:54.046Z,7.97
2018-09-29T13:12:22.242Z,8.03
2018-09-29T13:14:50.393Z,8.23
2018-09-29T13:17:18.529Z,8.75
2018-09-29T13:19:46.433Z,9.93
2018-09-29T13:22:15.649Z,8.70
2018-09-29T13:24:43.816Z,8.98
2018-09-29T13:27:12.178Z,7.42
2018-09-29T13:29:40.086Z,8.80
2018-09-29T13:32:07.941Z,9.38
2018-09-29T13:34:35.964Z,8.33
2018-09-29T13:37:03.811Z,9.15
2018-09-29T13:39:31.844Z,8.13
2018-09-29T13:41:59.811Z,8.50
2018-09-29T13:44:27.728Z,8.70
2018-09-29T13:46:55.546Z,8.80
2018-09-29T13:49:23.550Z,7.87
2018-09-29T13:51:51.616Z,8.33
2018-09-29T13:54:19.392Z,8.65
2018-09-29T13:56:47.553Z,7.55
2018-09-29T13:59:15.961Z,8.25
2018-09-29T14:01:44.049Z,8.00
2018-09-29T14:04:12.309Z,7.90
2018-09-29T14:06:40.792Z,8.68
2018-09-29T14:09:09.821Z,8.20
2018-09-29T14:11:38.161Z,9.23
2018-09-29T14:14:06.897Z,8.58
2018-09-29T14:16:35.048Z,8.18
2018-09-29T14:19:03.273Z,9.28
2018-09-29T14:21:31.337Z,9.33
2018-09-29T14:23:59.179Z,9.43
2018-09-29T14:26:27.088Z,9.03
2018-09-29T14:28:54.993Z,8.23
2018-09-29T14:31:22.897Z,8.53
2018-09-29T14:33:50.750Z,9.25
2018-09-29T14:36:18.697Z,9.18
2018-09-29T14:38:46.593Z,8.35
2018-09-29T14:41:14.648Z,9.33
2018-09-29T14:43:42.617Z,9.73
2018-09-29T14:46:10.550Z,9.88
2018-09-29T14:48:38.452Z,8.38
2018-09-29T14:51:06.562Z,8.45
2018-09-29T14:53:34.417Z,8.88
2018-09-29T14:56:02.291Z,8.30
2018-09-29T14:58:30.176Z,9.20
2018-09-29T15:00:58.001Z,8.55
2018-09-29T15:03:25.977Z,8.53
2018-09-29T15:05:53.800Z,8.58
2018-09-29T15:08:21.639Z,8.55
2018-09-29T15:10:49.659Z,8.23
2018-09-29T15:13:17.486Z,8.53
2018-09-29T15:15:45.669Z,9.08
2018-09-29T15:18:13.686Z,9.20
2018-09-29T15:20:41.486Z,8.20
2018-09-29T15:23:09.362Z,8.60
2018-09-29T15:25:37.138Z,9.60
2018-09-29T15:28:05.243Z,9.23
2018-09-29T15:30:33.061Z,9.53
2018-09-29T15:33:01.011Z,9.20
2018-09-29T15:35:28.938Z,9.47
2018-09-29T15:37:56.740Z,9.37
2018-09-29T15:40:24.537Z,9.27
2018-09-29T15:42:52.449Z,9.70
2018-09-29T15:45:20.511Z,8.63
2018-09-29T15:47:48.329Z,8.37
2018-09-29T15:50:16.233Z,8.83
2018-09-29T15:52:44.148Z,9.07
2018-09-29T15:55:12.162Z,8.90
2018-09-29T15:57:39.920Z,8.87
2018-09-29T16:00:07.848Z,9.20
2018-09-29T16:02:35.746Z,9.13
2018-09-29T16:05:03.600Z,8.97
2018-09-29T16:07:31.376Z,8.60
2018-09-29T16:09:59.278Z,8.57
2018-09-29T16:12:27.088Z,9.40
2018-09-29T16:14:55.415Z,9.77
2018-09-29T16:17:23.182Z,9.50
2018-09-29T16:19:51.162Z,9.40
2018-09-29T16:22:19.172Z,7.47
2018-09-29T16:24:47.208Z,8.30
2018-09-29T16:27:15.237Z,7.63
2018-09-29T16:29:43.058Z,8.37
2018-09-29T16:32:11.826Z,7.77
2018-09-29T16:34:39.863Z,8.73
2018-09-29T16:37:07.952Z,8.00
2018-09-29T16:39:35.779Z,9.43
2018-09-29T16:42:03.581Z,9.03
2018-09-29T16:44:31.370Z,9.30
2018-09-29T16:46:59.361Z,8.67
2018-09-29T16:49:27.281Z,9.53
2018-09-29T16:51:55.128Z,8.63
2018-09-29T16:54:22.934Z,9.10
2018-09-29T16:56:50.726Z,8.90
2018-09-29T16:59:18.552Z,9.47
2018-09-29T17:01:46.389Z,9.87
2018-09-29T17:04:14.471Z,8.90
2018-09-29T17:06:42.462Z,9.23
2018-09-29T17:09:11.775Z,8.87
2018-09-29T17:11:39.630Z,9.73
2018-09-29T17:14:07.742Z,9.17
2018-09-29T17:16:36.332Z,9.83
2018-09-29T17:19:04.354Z,8.63
2018-09-29T17:21:32.436Z,8.47
2018-09-29T17:24:00.430Z,8.20
2018-09-29T17:26:28.260Z,8.57
2018-09-29T17:28:56.432Z,9.53
2018-09-29T17:31:24.559Z,8.97
2018-09-29T17:33:52.520Z,8.43
2018-09-29T17:36:20.577Z,9.03
2018-09-29T17:38:48.613Z,8.30
2018-09-29T17:41:16.570Z,8.87
2018-09-29T17:43:44.461Z,10.10
2018-09-29T17:46:12.254Z,10.03
2018-09-29T17:48:40.066Z,9.53
2018-09-29T17:51:08.109Z,8.80
2018-09-29T17:53:35.958Z,8.63
2018-09-29T17:56:03.818Z,8.93
2018-09-29T17:58:32.321Z,8.90
2018-09-29T18:01:01.152Z,8.33
2018-09-29T18:03:28.941Z,8.33
2018-09-29T18:05:56.844Z,8.67
2018-09-29T18:08:24.760Z,8.13
2018-09-29T18:10:52.822Z,8.27
2018-09-29T18:13:20.789Z,8.60
2018-09-29T18:15:48.993Z,8.27
2018-09-29T18:18:16.846Z,8.00
2018-09-29T18:20:44.704Z,8.07
2018-09-29T18:23:12.619Z,8.20
2018-09-29T18:25:40.737Z,8.50
2018-09-29T18:28:09.277Z,9.07
2018-09-29T18:30:37.058Z,8.57
2018-09-29T18:33:05.126Z,8.50
2018-09-29T18:35:33.116Z,8.13
2018-09-29T18:38:00.924Z,9.00
2018-09-29T18:40:28.737Z,10.00
2018-09-29T18:42:56.735Z,8.40
2018-09-29T18:45:24.653Z,8.57
2018-09-29T18:47:52.473Z,9.63
2018-09-29T18:50:20.333Z,10.57
2018-09-29T18:52:48.253Z,8.93
2018-09-29T18:55:16.416Z,8.40
2018-09-29T18:57:44.465Z,7.80
2018-09-29T19:00:12.492Z,8.10
2018-09-29T19:02:40.306Z,6.83
2018-09-29T19:05:08.176Z,8.20
2018-09-29T19:07:35.990Z,7.77
2018-09-29T19:10:03.944Z,8.33
2018-09-29T19:12:31.770Z,7.60
2018-09-29T19:14:59.537Z,7.90
2018-09-29T19:17:27.326Z,7.77
2018-09-29T19:19:55.187Z,7.53
2018-09-29T19:22:23.288Z,7.40
2018-09-29T19:24:52.824Z,7.57
2018-09-29T19:27:20.676Z,7.60
2018-09-29T19:29:48.525Z,6.73
2018-09-29T19:32:16.321Z,7.47
2018-09-29T19:34:44.111Z,7.03
2018-09-29T19:37:12.194Z,6.73
2018-09-29T19:39:40.166Z,6.83
2018-09-29T19:42:08.035Z,7.00
2018-09-29T19:44:36.079Z,7.07
2018-09-29T19:47:03.923Z,6.93
2018-09-29T19:49:31.774Z,7.00
2018-09-29T19:51:59.845Z,7.37
2018-09-29T19:54:27.918Z,7.10
2018-09-29T19:56:56.160Z,7.77
2018-09-29T19:59:24.857Z,8.97
2018-09-29T20:01:53.132Z,8.93
2018-09-29T20:04:21.012Z,8.77
2018-09-29T20:06:49.095Z,8.63
2018-09-29T20:09:16.981Z,8.80
2018-09-29T20:11:46.482Z,8.10
2018-09-29T20:14:14.796Z,8.43
2018-09-29T20:16:43.119Z,8.10
2018-09-29T20:19:10.976Z,8.10
2018-09-29T20:21:38.757Z,8.17
2018-09-29T20:24:06.659Z,8.43
2018-09-29T20:26:34.621Z,9.17
2018-09-29T20:29:02.489Z,9.33
2018-09-29T20:31:30.656Z,9.40
2018-09-29T20:33:58.637Z,9.37
2018-09-29T20:36:26.849Z,8.37
2018-09-29T20:38:54.865Z,8.63
2018-09-29T20:41:22.830Z,8.73
2018-09-29T20:43:51.359Z,6.70
2018-09-29T20:46:19.655Z,6.73
2018-09-29T20:48:47.707Z,7.33
2018-09-29T20:51:15.716Z,7.13
2018-09-29T20:53:43.559Z,6.83
2018-09-29T20:56:11.373Z,6.63
2018-09-29T20:58:39.310Z,7.10
2018-09-29T21:01:07.255Z,7.10
2018-09-29T21:03:35.348Z,7.03
2018-09-29T21:06:03.333Z,7.17
2018-09-29T21:08:31.217Z,7.00
2018-09-29T21:10:59.415Z,7.53
2018-09-29T21:13:27.413Z,7.50
2018-09-29T21:15:55.351Z,7.90
2018-09-29T21:18:23.236Z,6.70
2018-09-29T21:20:51.369Z,6.43
2018-09-29T21:23:19.458Z,6.70
2018-09-29T21:25:47.407Z,6.83
2018-09-29T21:28:15.655Z,7.23
2018-09-29T21:30:47.317Z,7.60
2018-09-29T21:33:15.297Z,7.13
2018-09-29T21:35:43.085Z,6.33
2018-09-29T21:38:10.901Z,7.83
2018-09-29T21:40:38.725Z,6.23
2018-09-29T21:43:06.541Z,7.23
2018-09-29T21:45:34.401Z,7.67
2018-09-29T21:48:02.222Z,6.97
2018-09-29T21:50:30.155Z,7.83
2018-09-29T21:52:57.977Z,7.43
2018-09-29T21:55:25.769Z,7.73
2018-09-29T21:57:53.762Z,7.50
2018-09-29T22:00:27.306Z,7.97
2018-09-29T22:02:55.260Z,8.10
2018-09-29T22:05:23.404Z,7.50
2018-09-29T22:07:51.425Z,8.60
2018-09-29T22:10:19.342Z,8.50
2018-09-29T22:12:47.539Z,8.23
2018-09-29T22:15:15.541Z,7.97
2018-09-29T22:17:43.528Z,8.63
2018-09-29T22:20:11.465Z,7.90
2018-09-29T22:22:39.323Z,8.03
2018-09-29T22:25:07.317Z,8.27
2018-09-29T22:27:35.197Z,8.10
2018-09-29T22:30:03.166Z,8.13
2018-09-29T22:32:30.971Z,8.10
2018-09-29T22:34:59.560Z,8.10
2018-09-29T22:37:27.522Z,7.57
2018-09-29T22:39:55.337Z,8.53
2018-09-29T22:42:23.356Z,7.83
2018-09-29T22:44:51.105Z,8.07
2018-09-29T22:47:19.000Z,7.70
2018-09-29T22:49:46.904Z,8.60
2018-09-29T22:52:14.843Z,8.30
2018-09-29T22:54:42.853Z,7.80
2018-09-29T22:57:10.609Z,8.60
2018-09-29T22:59:38.409Z,7.43
2018-09-29T23:02:06.738Z,8.60
2018-09-29T23:04:34.697Z,8.00
2018-09-29T23:07:02.714Z,8.53
2018-09-29T23:09:32.908Z,8.37
2018-09-29T23:12:01.325Z,8.23
2018-09-29T23:14:29.170Z,8.70
2018-09-29T23:16:57.013Z,9.03
2018-09-29T23:19:25.700Z,7.97
2018-09-29T23:21:53.621Z,7.77
2018-09-29T23:24:21.446Z,7.80
2018-09-29T23:26:49.352Z,8.23
2018-09-29T23:29:17.129Z,8.23
2018-09-29T23:31:44.993Z,8.50
2018-09-29T23:34:12.781Z,8.20
2018-09-29T23:36:40.664Z,7.80
2018-09-29T23:39:09.205Z,7.90
2018-09-29T23:41:36.977Z,8.20
2018-09-29T23:44:04.932Z,8.20
2018-09-29T23:46:32.753Z,8.43
2018-09-29T23:49:00.769Z,7.70
2018-09-29T23:51:28.632Z,8.50
2018-09-29T23:53:56.424Z,7.87
2018-09-29T23:56:24.241Z,8.80
2018-09-29T23:58:52.046Z,8.07
